map of MGSJ home
MGSJ - Airport
Location
City:  Puerto San JosÚ, Escuintla, Guatemala
Name:San JosÚ
ICAO:MGSJ

Details
Type:Airport (Aerodrome, Airfield)
Use:Public/Civil, Military
Latitude:13░56'10"N (13.936192)
Longitude:90░50'09"W (-90.835832)
Datum:WGS 1984
Elevation:29 ft (9 m)
Variation:1.21░E (WMM2015 magnetic declination)
-0.14░ annual change
Runways:1
Longest:6595 × 150 ft (2010 × 45.5 m), paved

Time
Time Zone:UTC-6
Local Time:

Weather
METAR:MGSJ 170000Z 00000KT 9000 -DZ SCT016 OVC090 25/24 Q1008 A2977
TAF:MGSJ 161700Z 1618/1718 21010KT 9999 SCT018 TX32/1620Z TN22/1712Z
TEMPO 1618/1702 8000 TSRA SCT018TCU FEW025CB
BECMG 1700/1702 00000KT FEW016
BECMG 1714/1716 21010KT SCT018

Related Locations
Nearby:
Farthest:CCK: 11918 mi / 19180 km
West Island (Pulau Panjang) [Cocos (Keeling) Islands], CC

Find:

   beyond  
but within

Other Information
Maps:
NOTAMs:
Links:
Sources:

  
  • flag of Guatemala
  • flag of Escuintla
  

Sectional Chart

Flight Planning
at skyvector.com

Satellite Image

Google Maps Satellite view

 

Copyright © 2004-2018 Karl L. Swartz. All rights reserved.
The Great Circle Mapper name and logo are trademarks of the Great Circle Mapper.
All other trademarks mentioned herein belong to their respective owners.
Please see credits for attibutions and further copyright information.

  Follow gcmap on Facebook Follow gcmap on Twitter Follow gcmap on Google+ GCmap on LinkedIn

hCard Microformat

Geo Microformat